Time;durP1;ratioP1;P1;durP2;ratioP2;P2;SDS_P1;SDS_P2;PMS_P1;PMS_P2;Temp;Humidity;BMP_temperature;BMP_pressure;BME280_temperature;BME280_humidity;BME280_pressure;Samples;Min_cycle;Max_cycle;Signal;HPM_P1;HPM_P2
2022/08/23 00:01:41;;;;;;;4.80;3.53;;;18.20;99.90;;;;;;4153420;28;20287;-76
2022/08/23 00:03:43;;;;;;;4.57;3.20;;;18.10;99.90;;;;;;4153263;28;20235;-76
2022/08/23 00:05:45;;;;;;;4.40;3.10;;;18.10;99.90;;;;;;4153680;28;20218;-76
2022/08/23 00:07:47;;;;;;;4.13;3.13;;;18.10;99.90;;;;;;4154546;28;20743;-76
2022/08/23 00:09:49;;;;;;;6.03;3.27;;;18.10;99.90;;;;;;4154341;28;20593;-76
2022/08/23 00:11:53;;;;;;;3.60;3.23;;;18.00;99.90;;;;;;4154127;28;20201;-76
2022/08/23 00:13:57;;;;;;;4.83;3.73;;;18.00;99.90;;;;;;4153424;28;20195;-76
2022/08/23 00:16:00;;;;;;;5.40;3.73;;;18.00;99.90;;;;;;4151883;28;20282;-75
2022/08/23 00:18:02;;;;;;;4.10;3.23;;;18.00;99.90;;;;;;4151553;28;20226;-75
2022/08/23 00:20:10;;;;;;;4.60;3.80;;;18.00;99.90;;;;;;4137748;28;20582;-76
2022/08/23 00:22:13;;;;;;;5.20;3.50;;;17.90;99.90;;;;;;4155597;28;20372;-76
2022/08/23 00:24:16;;;;;;;4.77;3.53;;;17.90;99.90;;;;;;4153090;28;20214;-76
2022/08/23 00:26:19;;;;;;;5.00;3.67;;;17.90;99.90;;;;;;4151589;28;20289;-76
2022/08/23 00:28:21;;;;;;;5.13;3.57;;;17.80;99.90;;;;;;4136407;28;20255;-76
2022/08/23 00:30:24;;;;;;;5.60;3.77;;;17.80;99.90;;;;;;4148870;28;20247;-75
2022/08/23 00:32:30;;;;;;;5.57;3.70;;;17.80;99.90;;;;;;4150507;28;20207;-75
2022/08/23 00:34:32;;;;;;;5.37;3.87;;;17.80;99.90;;;;;;4154258;28;20214;-76
2022/08/23 00:36:34;;;;;;;5.20;3.87;;;17.70;99.90;;;;;;4157190;28;20504;-76
2022/08/23 00:38:35;;;;;;;4.77;4.00;;;17.70;99.90;;;;;;4153726;28;20285;-76
2022/08/23 00:40:37;;;;;;;5.27;3.60;;;17.70;99.90;;;;;;4151399;28;20214;-76
2022/08/23 00:47:41;;;;;;;4.47;3.73;;;17.60;99.90;;;;;;4134808;28;20209;-76
2022/08/23 00:49:47;;;;;;;6.73;3.80;;;17.50;99.90;;;;;;4152860;28;20212;-75
2022/08/23 00:51:56;;;;;;;4.47;3.63;;;17.50;99.90;;;;;;4151913;28;20209;-75
2022/08/23 00:54:00;;;;;;;7.00;4.03;;;17.50;99.90;;;;;;4153993;28;20206;-76
2022/08/23 00:56:03;;;;;;;5.70;3.70;;;17.40;99.90;;;;;;4152785;28;20581;-76
2022/08/23 00:58:05;;;;;;;5.03;3.90;;;17.40;99.90;;;;;;4152736;28;20774;-76
2022/08/23 01:00:10;;;;;;;6.90;4.17;;;17.40;99.90;;;;;;4152523;28;20286;-76
2022/08/23 01:02:13;;;;;;;4.10;3.70;;;17.40;99.90;;;;;;4149716;28;20241;-75
2022/08/23 01:04:16;;;;;;;4.80;4.03;;;17.40;99.90;;;;;;4150549;28;20615;-77
2022/08/23 01:06:24;;;;;;;4.37;3.87;;;17.30;99.90;;;;;;4153982;28;20797;-76
2022/08/23 01:08:27;;;;;;;6.80;4.03;;;17.30;99.90;;;;;;4149874;28;20237;-76
2022/08/23 01:10:32;;;;;;;5.07;4.00;;;17.30;99.90;;;;;;4137546;28;20319;-76
2022/08/23 01:12:37;;;;;;;4.93;3.83;;;17.30;99.90;;;;;;4149436;28;20212;-76
2022/08/23 01:14:46;;;;;;;4.83;4.20;;;17.20;99.90;;;;;;4157246;28;20211;-76
2022/08/23 01:16:54;;;;;;;6.47;4.33;;;17.20;99.90;;;;;;4153717;28;20585;-76
2022/08/23 01:18:57;;;;;;;4.60;3.80;;;17.20;99.90;;;;;;4155243;28;20219;-74
2022/08/23 01:21:08;;;;;;;4.47;3.70;;;17.10;99.90;;;;;;4157252;28;20289;-75
2022/08/23 01:23:26;;;;;;;6.23;4.33;;;17.10;99.90;;;;;;4156646;28;20722;-75
2022/08/23 01:25:32;;;;;;;7.20;4.27;;;17.10;99.90;;;;;;4155968;28;20688;-75
2022/08/23 01:27:35;;;;;;;5.83;4.40;;;17.10;99.90;;;;;;4155423;28;20249;-76
2022/08/23 01:29:37;;;;;;;5.43;4.27;;;17.00;99.90;;;;;;4156226;28;20265;-75
2022/08/23 01:31:38;;;;;;;5.73;4.33;;;17.00;99.90;;;;;;4152362;28;20299;-77
2022/08/23 01:33:41;;;;;;;6.73;4.57;;;17.00;99.90;;;;;;4152385;28;20207;-75
2022/08/23 01:35:47;;;;;;;5.30;4.20;;;17.00;99.90;;;;;;4140835;28;20760;-75
2022/08/23 01:37:49;;;;;;;5.40;4.10;;;17.00;99.90;;;;;;4158309;28;20331;-74
2022/08/23 01:39:54;;;;;;;5.97;4.23;;;16.90;99.90;;;;;;4136809;28;20222;-74
2022/08/23 01:41:55;;;;;;;5.43;4.10;;;16.90;99.90;;;;;;4156489;28;20954;-75
2022/08/23 01:43:57;;;;;;;5.13;4.00;;;16.90;99.90;;;;;;4154288;28;20258;-75
2022/08/23 01:46:08;;;;;;;5.93;3.77;;;16.90;99.90;;;;;;4156338;28;20210;-75
2022/08/23 01:48:10;;;;;;;4.60;4.10;;;16.90;99.90;;;;;;4154035;28;20259;-74
2022/08/23 01:50:12;;;;;;;5.77;4.13;;;16.80;99.90;;;;;;4157504;28;20245;-74
2022/08/23 01:52:16;;;;;;;5.53;4.23;;;16.80;99.90;;;;;;4155352;28;20199;-75
2022/08/23 01:54:17;;;;;;;4.83;4.20;;;16.80;99.90;;;;;;4153661;28;20238;-76
2022/08/23 01:56:21;;;;;;;6.37;4.40;;;16.70;99.90;;;;;;4157220;28;20289;-75
2022/08/23 01:58:23;;;;;;;5.77;4.30;;;16.70;99.90;;;;;;4139411;28;20234;-75
2022/08/23 02:00:29;;;;;;;4.70;4.10;;;16.70;99.90;;;;;;4156588;28;20709;-77
2022/08/23 02:02:31;;;;;;;6.13;4.47;;;16.70;99.90;;;;;;4156109;28;20655;-75
2022/08/23 02:04:33;;;;;;;5.30;4.37;;;16.60;99.90;;;;;;4152676;28;20257;-75
2022/08/23 02:06:35;;;;;;;6.53;4.10;;;16.60;99.90;;;;;;4157862;28;20214;-75
2022/08/23 02:10:57;;;;;;;5.17;4.27;;;16.60;99.90;;;;;;4153187;28;20213;-76
2022/08/23 02:13:00;;;;;;;6.70;4.07;;;16.60;99.90;;;;;;4156353;28;20215;-77
2022/08/23 02:15:02;;;;;;;4.73;4.20;;;16.60;99.90;;;;;;4154755;28;20203;-76
2022/08/23 02:17:04;;;;;;;7.07;4.30;;;16.60;99.90;;;;;;4156699;28;20621;-76
2022/08/23 02:19:09;;;;;;;4.83;4.07;;;16.60;99.90;;;;;;4156238;28;20233;-76
2022/08/23 02:21:14;;;;;;;5.40;4.20;;;16.50;99.90;;;;;;4141206;28;20330;-76
2022/08/23 02:23:16;;;;;;;6.67;4.67;;;16.50;99.90;;;;;;4154248;28;20210;-75
2022/08/23 02:25:18;;;;;;;4.97;4.13;;;16.50;99.90;;;;;;4151450;28;20202;-76
2022/08/23 02:27:19;;;;;;;5.23;4.23;;;16.50;99.90;;;;;;4153022;28;20237;-76
2022/08/23 02:29:24;;;;;;;6.73;4.17;;;16.50;99.90;;;;;;4154420;28;20244;-76
2022/08/23 02:31:26;;;;;;;5.40;4.30;;;16.40;99.90;;;;;;4153848;28;20234;-76
2022/08/23 02:33:28;;;;;;;5.73;4.20;;;16.40;99.90;;;;;;4157015;28;20291;-75
2022/08/23 02:35:32;;;;;;;6.33;4.50;;;16.40;99.90;;;;;;4155624;28;20205;-76
2022/08/23 02:37:34;;;;;;;5.27;4.07;;;16.40;99.90;;;;;;4138828;28;20765;-76
2022/08/23 02:39:36;;;;;;;5.33;4.27;;;16.40;99.90;;;;;;4152289;28;20245;-75
2022/08/23 02:41:40;;;;;;;5.23;4.27;;;16.30;99.90;;;;;;4156429;28;20210;-75
2022/08/23 02:43:42;;;;;;;5.77;4.20;;;16.30;99.90;;;;;;4130886;28;20218;-76
2022/08/23 02:45:45;;;;;;;5.20;4.30;;;16.30;99.90;;;;;;4134624;28;20203;-76
2022/08/23 02:47:47;;;;;;;5.13;3.90;;;16.30;99.90;;;;;;4155166;28;20241;-75
2022/08/23 02:49:50;;;;;;;4.90;4.03;;;16.30;99.90;;;;;;4153295;28;20221;-76
2022/08/23 02:51:52;;;;;;;5.57;4.37;;;16.30;99.90;;;;;;4154491;28;20286;-75
2022/08/23 02:53:54;;;;;;;5.70;4.43;;;16.20;99.90;;;;;;4138607;28;20641;-76
2022/08/23 02:55:56;;;;;;;7.27;4.20;;;16.20;99.90;;;;;;4157958;28;20230;-76
2022/08/23 02:57:58;;;;;;;5.50;4.33;;;16.20;99.90;;;;;;4136279;28;20262;-76
2022/08/23 03:00:00;;;;;;;4.53;3.90;;;16.20;99.90;;;;;;4154073;28;20610;-75
2022/08/23 03:02:04;;;;;;;5.57;3.97;;;16.20;99.90;;;;;;4154822;28;20236;-75
2022/08/23 03:04:07;;;;;;;4.97;3.93;;;16.20;99.90;;;;;;4154766;28;20238;-76
2022/08/23 03:06:09;;;;;;;5.57;3.50;;;16.20;99.90;;;;;;4135215;28;20301;-75
2022/08/23 03:08:11;;;;;;;4.50;3.97;;;16.10;99.90;;;;;;4139094;28;20268;-76
2022/08/23 03:10:15;;;;;;;4.43;3.60;;;16.10;99.90;;;;;;4137438;28;20242;-76
2022/08/23 03:12:17;;;;;;;5.00;3.70;;;16.10;99.90;;;;;;4138310;28;20226;-75
2022/08/23 03:14:19;;;;;;;4.70;4.20;;;16.10;99.90;;;;;;4135530;28;20325;-76
2022/08/23 03:16:21;;;;;;;4.90;3.87;;;16.00;99.90;;;;;;4119148;28;20211;-80
2022/08/23 03:18:24;;;;;;;5.40;4.30;;;16.00;99.90;;;;;;4138325;28;20233;-76
2022/08/23 03:20:27;;;;;;;5.40;3.90;;;16.00;99.90;;;;;;4138997;28;20202;-76
2022/08/23 03:22:28;;;;;;;6.07;4.27;;;16.00;99.90;;;;;;4137259;28;20205;-75
2022/08/23 03:24:30;;;;;;;9.50;4.10;;;16.00;99.90;;;;;;4139974;28;20229;-76
2022/08/23 03:26:32;;;;;;;5.33;4.30;;;16.00;99.90;;;;;;4134807;28;20202;-76
2022/08/23 03:28:35;;;;;;;5.23;4.27;;;15.90;99.90;;;;;;4140745;28;20226;-76
2022/08/23 03:30:37;;;;;;;4.87;4.13;;;15.90;99.90;;;;;;4134751;28;21058;-76
2022/08/23 03:32:39;;;;;;;4.87;4.07;;;15.90;99.90;;;;;;4140202;28;20215;-75
2022/08/23 03:34:43;;;;;;;6.47;4.13;;;15.90;99.90;;;;;;4141239;28;20210;-76
2022/08/23 03:36:44;;;;;;;5.23;4.03;;;15.80;99.90;;;;;;4138469;28;20245;-75
2022/08/23 03:38:46;;;;;;;5.43;4.20;;;15.90;99.90;;;;;;4138135;28;20308;-75
2022/08/23 03:40:51;;;;;;;5.17;4.10;;;15.80;99.90;;;;;;4135164;28;20922;-76
2022/08/23 03:42:53;;;;;;;5.80;4.30;;;15.80;99.90;;;;;;4120214;28;20215;-76
2022/08/23 03:44:55;;;;;;;6.20;4.00;;;15.80;99.90;;;;;;4138083;28;20247;-76
2022/08/23 03:46:56;;;;;;;5.10;4.07;;;15.80;99.90;;;;;;4140717;28;20210;-76
2022/08/23 03:49:00;;;;;;;5.73;4.50;;;15.80;99.90;;;;;;4139113;28;21010;-76
2022/08/23 03:51:04;;;;;;;6.67;4.80;;;15.80;99.90;;;;;;4118494;28;20321;-75
2022/08/23 03:53:06;;;;;;;6.17;4.57;;;15.80;99.90;;;;;;4138925;28;20772;-76
2022/08/23 03:55:11;;;;;;;5.23;4.20;;;15.80;99.90;;;;;;4134892;28;20734;-76
2022/08/23 03:57:13;;;;;;;6.17;4.57;;;15.80;99.90;;;;;;4139222;28;20294;-76
2022/08/23 03:59:14;;;;;;;5.47;4.50;;;15.70;99.90;;;;;;4137319;28;20294;-76
2022/08/23 04:01:17;;;;;;;5.50;4.90;;;15.70;99.90;;;;;;4136927;28;20281;-76
2022/08/23 04:03:21;;;;;;;5.70;4.87;;;15.70;99.90;;;;;;4137840;28;20292;-77
2022/08/23 04:05:23;;;;;;;5.70;4.57;;;15.70;99.90;;;;;;4136404;28;20702;-76
2022/08/23 04:07:26;;;;;;;5.93;4.73;;;15.60;99.90;;;;;;4134129;28;22034;-76
2022/08/23 04:09:29;;;;;;;7.87;4.93;;;15.60;99.90;;;;;;4137617;28;20288;-76
2022/08/23 04:11:31;;;;;;;5.47;4.30;;;15.60;99.90;;;;;;4119093;28;20302;-76
2022/08/23 04:13:33;;;;;;;5.53;4.57;;;15.60;99.90;;;;;;4138398;28;20693;-76
2022/08/23 04:15:36;;;;;;;5.87;4.77;;;15.60;99.90;;;;;;4137072;28;20340;-76
2022/08/23 04:17:37;;;;;;;5.70;4.77;;;15.60;99.90;;;;;;4120494;28;20310;-75
2022/08/23 04:19:42;;;;;;;7.83;4.80;;;15.60;99.90;;;;;;4138684;28;20286;-76
2022/08/23 04:21:48;;;;;;;6.83;5.03;;;15.60;99.90;;;;;;4138277;28;20212;-76
2022/08/23 04:23:51;;;;;;;7.77;4.50;;;15.60;99.90;;;;;;4136890;28;20295;-75
2022/08/23 04:25:53;;;;;;;6.90;4.67;;;15.60;99.90;;;;;;4137389;28;20665;-76
2022/08/23 04:27:55;;;;;;;5.83;4.70;;;15.60;99.90;;;;;;4137490;28;20308;-76
2022/08/23 04:29:57;;;;;;;6.30;4.77;;;15.60;99.90;;;;;;4138133;28;20586;-75
2022/08/23 04:31:59;;;;;;;5.10;4.43;;;15.60;99.90;;;;;;4119849;28;20230;-76
2022/08/23 04:34:01;;;;;;;6.97;4.90;;;15.60;99.90;;;;;;4119513;28;20261;-76
2022/08/23 04:36:04;;;;;;;6.83;4.53;;;15.60;99.90;;;;;;4137702;28;20227;-76
2022/08/23 04:38:06;;;;;;;7.27;4.90;;;15.60;99.90;;;;;;4133871;28;20262;-76
2022/08/23 04:42:30;;;;;;;7.77;4.90;;;15.60;99.90;;;;;;4117251;28;20207;-76
2022/08/23 04:44:32;;;;;;;5.97;4.67;;;15.60;99.90;;;;;;4138507;28;20217;-75
2022/08/23 04:46:35;;;;;;;5.93;4.80;;;15.60;99.90;;;;;;4136700;28;20233;-76
2022/08/23 04:48:37;;;;;;;6.53;4.80;;;15.60;99.90;;;;;;4137409;28;20247;-75
2022/08/23 04:50:39;;;;;;;6.97;4.67;;;15.60;99.90;;;;;;4136681;28;20230;-76
2022/08/23 04:52:43;;;;;;;5.83;4.23;;;15.60;99.90;;;;;;4136547;28;20212;-76
2022/08/23 04:54:46;;;;;;;6.40;4.67;;;15.60;99.90;;;;;;4116905;28;20240;-76
2022/08/23 04:56:49;;;;;;;6.00;4.60;;;15.60;99.90;;;;;;4134447;28;20214;-76
2022/08/23 04:58:51;;;;;;;6.10;4.43;;;15.70;99.90;;;;;;4122938;28;20239;-75
2022/08/23 05:00:53;;;;;;;6.53;4.80;;;15.70;99.90;;;;;;4139990;28;20193;-76
2022/08/23 05:02:55;;;;;;;6.10;4.53;;;15.70;99.90;;;;;;4135760;28;20597;-76
2022/08/23 05:04:57;;;;;;;5.77;4.50;;;15.70;99.90;;;;;;4135854;28;20207;-75
2022/08/23 05:06:59;;;;;;;6.17;4.33;;;15.70;99.90;;;;;;4137398;28;20669;-76
2022/08/23 05:09:01;;;;;;;4.57;3.83;;;15.70;99.90;;;;;;4137773;28;20260;-76
2022/08/23 05:11:05;;;;;;;6.87;4.40;;;15.80;99.90;;;;;;4136687;28;20222;-76
2022/08/23 05:13:08;;;;;;;6.10;4.60;;;15.80;99.90;;;;;;4134796;28;20215;-76
2022/08/23 05:15:11;;;;;;;5.30;4.10;;;15.80;99.90;;;;;;4137189;28;20210;-75
2022/08/23 05:17:13;;;;;;;5.73;4.27;;;15.80;99.90;;;;;;4134219;28;20209;-76
2022/08/23 05:19:15;;;;;;;5.77;3.70;;;15.80;99.90;;;;;;4121199;28;20212;-75
2022/08/23 05:21:19;;;;;;;5.27;4.23;;;15.80;99.90;;;;;;4125943;28;20235;-76
2022/08/23 05:23:21;;;;;;;4.27;3.73;;;15.80;99.90;;;;;;4132139;28;20218;-76
2022/08/23 05:25:23;;;;;;;5.60;4.43;;;15.90;99.90;;;;;;4135079;28;20634;-76
2022/08/23 05:27:25;;;;;;;6.13;4.27;;;15.90;99.90;;;;;;4137589;28;20208;-76
2022/08/23 05:29:29;;;;;;;4.77;3.87;;;15.90;99.90;;;;;;4136411;28;20251;-76
2022/08/23 05:31:33;;;;;;;4.57;3.83;;;15.90;99.90;;;;;;4125723;28;20684;-77
2022/08/23 05:33:36;;;;;;;4.70;3.73;;;15.90;99.90;;;;;;4135002;28;20670;-76
2022/08/23 05:35:38;;;;;;;5.13;4.17;;;16.00;99.90;;;;;;4137376;28;20231;-76
2022/08/23 05:37:40;;;;;;;4.27;3.77;;;15.90;99.90;;;;;;4133983;28;20226;-76
2022/08/23 05:39:42;;;;;;;5.77;4.10;;;16.00;99.90;;;;;;4135739;28;20218;-76
2022/08/23 05:41:44;;;;;;;4.70;3.87;;;16.00;99.90;;;;;;4117561;28;20211;-76
2022/08/23 05:43:47;;;;;;;4.27;3.63;;;16.00;99.90;;;;;;4141099;28;20217;-76
2022/08/23 05:45:59;;;;;;;4.27;3.77;;;16.00;99.90;;;;;;4134260;28;20239;-76
2022/08/23 05:48:01;;;;;;;4.67;3.80;;;16.00;99.90;;;;;;4135012;28;20880;-75
2022/08/23 05:50:04;;;;;;;5.77;4.37;;;16.10;99.90;;;;;;4137791;28;20214;-76
2022/08/23 05:52:08;;;;;;;5.97;4.20;;;16.00;99.90;;;;;;4136424;28;20611;-75
2022/08/23 05:54:10;;;;;;;5.60;4.20;;;16.10;99.90;;;;;;4138432;28;20301;-75
2022/08/23 05:56:15;;;;;;;10.10;4.30;;;16.10;99.90;;;;;;4120130;28;20216;-76
2022/08/23 05:58:20;;;;;;;5.20;4.00;;;16.10;99.90;;;;;;4135443;28;20252;-76
2022/08/23 06:00:22;;;;;;;4.63;3.87;;;16.20;99.90;;;;;;4137295;28;20695;-76
2022/08/23 06:02:25;;;;;;;4.83;4.00;;;16.20;99.90;;;;;;4126785;28;20215;-75
2022/08/23 06:04:30;;;;;;;5.13;4.00;;;16.30;99.90;;;;;;4139914;28;20294;-76
2022/08/23 06:06:32;;;;;;;4.63;3.70;;;16.30;99.90;;;;;;4137593;28;20250;-76
2022/08/23 06:08:35;;;;;;;4.63;4.00;;;16.40;99.90;;;;;;4138295;28;20720;-76
2022/08/23 06:10:37;;;;;;;5.13;3.97;;;16.50;99.90;;;;;;4119716;28;20264;-76
2022/08/23 06:12:39;;;;;;;5.30;3.60;;;16.50;99.90;;;;;;4141857;28;20227;-76
2022/08/23 06:14:41;;;;;;;4.87;3.63;;;16.60;99.90;;;;;;4123558;28;20205;-76
2022/08/23 06:16:46;;;;;;;4.67;3.50;;;16.60;99.90;;;;;;4139081;28;20665;-76
2022/08/23 06:18:49;;;;;;;4.20;3.23;;;16.70;99.90;;;;;;4118226;28;20236;-76
2022/08/23 06:21:03;;;;;;;5.27;3.50;;;16.70;99.90;;;;;;4118850;28;20646;-75
2022/08/23 06:23:06;;;;;;;4.43;3.40;;;16.80;99.90;;;;;;4123964;28;20307;-75
2022/08/23 06:25:09;;;;;;;4.13;3.50;;;16.90;99.90;;;;;;4142438;28;20219;-77
2022/08/23 06:27:14;;;;;;;4.70;3.43;;;16.90;99.90;;;;;;4139111;28;20295;-77
2022/08/23 06:29:20;;;;;;;4.80;3.73;;;17.00;99.90;;;;;;4139675;28;20208;-77
2022/08/23 06:33:43;;;;;;;5.07;4.10;;;17.10;99.90;;;;;;4135467;28;20232;-77
2022/08/23 06:35:46;;;;;;;4.23;3.30;;;17.20;99.90;;;;;;4141024;28;20592;-77
2022/08/23 06:37:48;;;;;;;3.93;3.17;;;17.30;99.90;;;;;;4138968;28;20308;-77
2022/08/23 06:39:51;;;;;;;4.60;3.03;;;17.30;99.90;;;;;;4140310;28;20247;-77
2022/08/23 06:41:59;;;;;;;5.83;3.20;;;17.40;99.90;;;;;;4134844;28;20209;-77
2022/08/23 06:44:01;;;;;;;4.23;3.17;;;17.50;99.90;;;;;;4137595;28;20231;-78
2022/08/23 06:46:12;;;;;;;4.63;3.30;;;17.50;99.90;;;;;;4139892;28;20211;-77
2022/08/23 06:48:14;;;;;;;4.83;3.40;;;17.60;99.90;;;;;;4139797;28;20240;-77
2022/08/23 06:50:17;;;;;;;4.83;3.50;;;17.60;99.90;;;;;;4126939;28;20213;-76
2022/08/23 06:52:20;;;;;;;5.57;3.47;;;17.70;99.90;;;;;;4140811;28;20275;-77
2022/08/23 06:54:25;;;;;;;5.97;3.37;;;17.70;99.90;;;;;;4140473;28;20213;-76
2022/08/23 06:56:28;;;;;;;4.23;3.40;;;17.80;99.90;;;;;;4138475;28;20757;-77
2022/08/23 06:58:30;;;;;;;4.77;2.90;;;17.90;99.90;;;;;;4140070;28;20261;-77
2022/08/23 07:00:34;;;;;;;5.50;3.27;;;17.90;99.90;;;;;;4136833;28;20215;-77
2022/08/23 07:02:36;;;;;;;4.60;3.10;;;18.00;99.90;;;;;;4126573;28;20202;-77
2022/08/23 07:04:40;;;;;;;3.83;3.23;;;18.00;99.90;;;;;;4136973;28;20543;-78
2022/08/23 07:06:42;;;;;;;5.13;3.57;;;18.10;99.90;;;;;;4138046;28;20244;-78
2022/08/23 07:08:45;;;;;;;5.50;3.50;;;18.10;99.90;;;;;;4138155;28;20223;-78
2022/08/23 07:10:47;;;;;;;6.97;3.93;;;18.20;99.90;;;;;;4138437;28;20966;-77
2022/08/23 07:12:49;;;;;;;7.30;3.50;;;18.30;99.90;;;;;;4138670;28;20223;-77
2022/08/23 07:14:51;;;;;;;6.93;4.03;;;18.30;99.90;;;;;;4145222;28;20783;-77
2022/08/23 07:16:56;;;;;;;7.37;4.27;;;18.40;99.90;;;;;;4142849;28;20742;-77
2022/08/23 07:18:59;;;;;;;5.07;3.90;;;18.40;99.90;;;;;;4118761;28;20808;-77
2022/08/23 07:21:04;;;;;;;4.73;4.00;;;18.50;99.90;;;;;;4134820;28;20225;-77
2022/08/23 07:23:06;;;;;;;7.00;4.53;;;18.50;99.90;;;;;;4139155;28;20320;-77
2022/08/23 07:25:09;;;;;;;6.73;4.70;;;18.60;99.90;;;;;;4137763;28;20975;-77
2022/08/23 07:27:14;;;;;;;6.63;4.77;;;18.70;99.90;;;;;;4144654;28;20900;-77
2022/08/23 07:29:18;;;;;;;6.77;4.60;;;18.70;99.90;;;;;;4125434;28;20678;-77
2022/08/23 07:31:24;;;;;;;7.43;5.00;;;18.70;99.90;;;;;;4141612;28;20728;-77
2022/08/23 07:33:26;;;;;;;6.53;4.70;;;18.80;99.90;;;;;;4126759;28;20219;-77
2022/08/23 07:35:28;;;;;;;7.93;5.30;;;18.80;99.90;;;;;;4140887;28;20206;-77
2022/08/23 07:37:30;;;;;;;7.03;5.10;;;18.80;99.90;;;;;;4142913;28;20207;-76
2022/08/23 07:39:34;;;;;;;6.53;5.30;;;18.80;99.90;;;;;;4140400;28;20728;-78
2022/08/23 07:41:38;;;;;;;7.20;4.80;;;18.80;99.90;;;;;;4138243;28;20240;-76
2022/08/23 07:43:41;;;;;;;7.33;5.30;;;18.80;99.90;;;;;;4142052;28;20295;-76
2022/08/23 07:45:43;;;;;;;8.27;5.17;;;18.90;99.90;;;;;;4137467;28;20279;-76
2022/08/23 07:47:45;;;;;;;5.40;4.57;;;18.90;99.90;;;;;;4142618;28;20318;-75
2022/08/23 07:49:47;;;;;;;6.33;5.10;;;19.00;99.90;;;;;;4143298;28;20219;-78
2022/08/23 07:51:50;;;;;;;7.30;4.73;;;19.00;99.90;;;;;;4121193;28;20228;-74
2022/08/23 07:53:52;;;;;;;5.63;4.47;;;19.10;99.90;;;;;;4141497;28;20299;-74
2022/08/23 07:55:55;;;;;;;6.83;4.47;;;19.10;99.90;;;;;;4138860;28;20244;-74
2022/08/23 07:57:59;;;;;;;5.33;4.83;;;19.20;99.90;;;;;;4141099;28;20541;-74
2022/08/23 08:00:00;;;;;;;7.10;4.70;;;19.20;99.90;;;;;;4138657;28;20218;-73
2022/08/23 08:02:02;;;;;;;9.73;5.33;;;19.20;99.90;;;;;;4138889;28;20269;-76
2022/08/23 08:04:06;;;;;;;6.23;4.60;;;19.20;99.90;;;;;;4136194;28;20293;-74
2022/08/23 08:06:12;;;;;;;6.27;4.70;;;19.30;99.90;;;;;;4134675;28;20313;-75
2022/08/23 08:08:14;;;;;;;7.70;5.00;;;19.40;99.90;;;;;;4140761;28;20235;-75
2022/08/23 08:10:16;;;;;;;7.27;5.07;;;19.40;99.90;;;;;;4139042;28;20221;-75
2022/08/23 08:12:18;;;;;;;6.40;4.70;;;19.40;99.90;;;;;;4134467;28;20243;-74
2022/08/23 08:14:21;;;;;;;6.17;4.67;;;19.50;99.90;;;;;;4139696;28;20250;-75
2022/08/23 08:16:29;;;;;;;6.60;4.40;;;19.50;99.90;;;;;;4141406;28;20298;-72
2022/08/23 08:18:31;;;;;;;6.40;4.57;;;19.60;99.90;;;;;;4140135;28;20278;-74
2022/08/23 08:20:35;;;;;;;5.43;4.10;;;19.70;99.90;;;;;;4139553;28;20197;-74
2022/08/23 08:22:37;;;;;;;5.00;4.27;;;19.70;99.90;;;;;;4139758;28;20277;-75
2022/08/23 08:24:39;;;;;;;6.47;4.47;;;19.80;99.90;;;;;;4122456;28;20710;-75
2022/08/23 08:26:42;;;;;;;6.20;4.67;;;19.90;99.90;;;;;;4126773;28;20208;-76
2022/08/23 08:28:45;;;;;;;7.37;4.43;;;19.90;99.90;;;;;;4123621;28;20319;-76
2022/08/23 08:30:52;;;;;;;7.47;4.20;;;19.90;99.90;;;;;;4140009;28;20210;-77
2022/08/23 08:32:53;;;;;;;5.33;3.97;;;20.00;99.90;;;;;;4144160;28;20854;-75
2022/08/23 08:34:56;;;;;;;5.33;3.27;;;20.00;99.90;;;;;;4141436;28;20808;-75
2022/08/23 08:36:58;;;;;;;8.47;3.30;;;20.10;99.90;;;;;;4141655;28;20205;-75
2022/08/23 08:39:03;;;;;;;3.30;3.00;;;20.20;99.90;;;;;;4140275;28;20227;-76
2022/08/23 08:41:14;;;;;;;2.70;2.40;;;20.20;99.90;;;;;;4123617;28;20694;-75
2022/08/23 08:43:29;;;;;;;4.40;2.60;;;20.30;99.90;;;;;;4142887;28;20234;-75
2022/08/23 08:45:38;;;;;;;5.13;2.70;;;20.40;99.90;;;;;;4143822;28;20231;-75
2022/08/23 08:47:46;;;;;;;3.20;2.47;;;20.50;99.90;;;;;;4140275;28;20269;-74
2022/08/23 08:49:56;;;;;;;3.13;2.33;;;20.50;99.90;;;;;;4140000;28;20203;-75
2022/08/23 08:52:02;;;;;;;4.13;2.43;;;20.60;99.90;;;;;;4125550;28;20252;-75
2022/08/23 08:54:08;;;;;;;3.83;2.20;;;20.60;99.90;;;;;;4143668;28;20199;-75
2022/08/23 08:56:19;;;;;;;4.00;2.13;;;20.70;99.90;;;;;;4141148;28;20582;-75
2022/08/23 08:58:27;;;;;;;4.17;2.30;;;20.80;99.90;;;;;;4142622;28;20234;-76
2022/08/23 09:00:32;;;;;;;3.13;2.10;;;20.90;99.90;;;;;;4133797;28;20214;-77
2022/08/23 09:02:35;;;;;;;2.57;1.80;;;20.90;99.90;;;;;;4140391;28;20196;-75
2022/08/23 09:04:38;;;;;;;2.23;1.80;;;21.00;99.90;;;;;;4131179;28;20196;-77
2022/08/23 09:06:49;;;;;;;2.40;1.80;;;21.10;99.90;;;;;;4143381;28;20227;-78
2022/08/23 09:09:15;;;;;;;3.93;2.07;;;21.20;99.90;;;;;;4136002;28;20232;-79
2022/08/23 09:11:35;;;;;;;2.97;1.87;;;21.20;99.90;;;;;;4143183;28;20286;-77
2022/08/23 09:13:59;;;;;;;2.30;1.90;;;21.30;99.90;;;;;;4130828;28;20681;-78
2022/08/23 09:16:15;;;;;;;3.73;2.17;;;21.40;99.90;;;;;;4144055;28;20241;-78
2022/08/23 09:18:17;;;;;;;2.63;1.77;;;21.40;99.90;;;;;;4119419;28;20232;-78
2022/08/23 09:20:23;;;;;;;3.13;2.00;;;21.50;99.90;;;;;;4137562;28;20244;-80
2022/08/23 09:22:32;;;;;;;2.60;1.93;;;21.50;99.90;;;;;;4137411;28;20204;-79
2022/08/23 09:24:36;;;;;;;3.27;2.10;;;21.60;99.90;;;;;;4138292;28;20209;-78
2022/08/23 09:26:38;;;;;;;4.30;2.30;;;21.70;99.90;;;;;;4134934;28;20210;-76
2022/08/23 09:28:40;;;;;;;3.20;1.97;;;21.70;99.90;;;;;;4138910;28;20316;-78
2022/08/23 09:30:51;;;;;;;6.13;2.93;;;21.70;99.90;;;;;;4140585;28;20207;-78
2022/08/23 09:32:54;;;;;;;6.17;2.60;;;21.70;99.90;;;;;;4121261;28;20228;-80
2022/08/23 09:35:07;;;;;;;5.80;2.90;;;21.70;99.90;;;;;;4120598;28;20221;-79
2022/08/23 09:37:18;;;;;;;5.20;2.47;;;21.80;99.90;;;;;;4127646;28;20625;-78
2022/08/23 09:39:30;;;;;;;3.23;2.23;;;21.80;99.90;;;;;;4127489;28;20766;-80
2022/08/23 09:41:36;;;;;;;3.40;2.07;;;21.80;99.90;;;;;;4140736;28;20209;-75
2022/08/23 09:43:47;;;;;;;3.07;2.07;;;21.80;99.90;;;;;;4144777;28;20296;-76
2022/08/23 09:45:58;;;;;;;4.27;2.20;;;21.80;99.90;;;;;;4140860;28;20212;-75
2022/08/23 09:48:00;;;;;;;2.40;1.97;;;21.80;99.90;;;;;;4135531;28;20740;-77
2022/08/23 09:50:10;;;;;;;3.90;2.37;;;21.80;99.90;;;;;;4137535;28;20279;-76
2022/08/23 09:52:24;;;;;;;2.83;2.13;;;21.80;99.90;;;;;;4144704;28;20215;-75
2022/08/23 09:54:33;;;;;;;3.67;2.10;;;21.80;99.90;;;;;;4142656;28;20202;-79
2022/08/23 09:56:38;;;;;;;3.17;2.13;;;21.80;99.90;;;;;;4128876;28;20213;-80
2022/08/23 09:58:42;;;;;;;2.93;2.27;;;21.90;99.90;;;;;;4139063;28;20232;-80
2022/08/23 10:00:45;;;;;;;2.90;2.03;;;21.90;99.90;;;;;;4136992;28;20232;-78
2022/08/23 10:02:47;;;;;;;3.43;2.30;;;21.90;99.90;;;;;;4123821;28;20229;-79
2022/08/23 10:04:58;;;;;;;2.87;2.13;;;21.90;99.90;;;;;;4143012;28;20306;-79
2022/08/23 10:07:01;;;;;;;3.83;2.50;;;22.00;99.90;;;;;;4143527;28;20250;-79
2022/08/23 10:09:07;;;;;;;4.37;2.50;;;22.00;99.90;;;;;;4146147;28;20289;-80
2022/08/23 10:11:17;;;;;;;2.70;2.33;;;22.00;99.90;;;;;;4142464;28;20205;-79
2022/08/23 10:13:20;;;;;;;5.93;2.93;;;22.10;99.90;;;;;;4145543;28;20234;-80
2022/08/23 10:15:29;;;;;;;3.53;2.07;;;22.20;99.90;;;;;;4145213;28;20213;-83
2022/08/23 10:17:36;;;;;;;3.93;2.50;;;22.20;99.90;;;;;;4140140;28;20247;-76
2022/08/23 10:19:50;;;;;;;3.93;2.10;;;22.30;99.90;;;;;;4139757;28;20204;-76
2022/08/23 10:21:59;;;;;;;3.30;2.50;;;22.30;99.90;;;;;;4135045;28;20208;-76
2022/08/23 10:24:19;;;;;;;5.30;2.10;;;22.40;99.90;;;;;;4137598;28;20235;-79
2022/08/23 10:26:27;;;;;;;2.40;2.13;;;22.50;99.90;;;;;;4135896;28;20202;-75
2022/08/23 10:31:09;;;;;;;3.17;2.20;;;22.60;99.90;;;;;;4141632;28;20204;-74
2022/08/23 10:33:17;;;;;;;2.83;1.93;;;22.70;99.90;;;;;;4136627;28;20226;-76
2022/08/23 10:35:28;;;;;;;2.20;2.00;;;22.80;99.90;;;;;;4138469;28;20211;-77
2022/08/23 10:37:51;;;;;;;2.10;1.90;;;23.00;99.90;;;;;;4142300;28;20237;-77
2022/08/23 10:40:03;;;;;;;1.90;1.70;;;23.10;99.90;;;;;;4136598;28;20236;-76
2022/08/23 10:42:12;;;;;;;3.07;1.97;;;23.40;99.90;;;;;;4142783;28;20215;-76
2022/08/23 10:44:24;;;;;;;3.53;2.13;;;23.60;99.90;;;;;;4123275;28;20244;-76
2022/08/23 10:46:29;;;;;;;4.60;2.37;;;23.70;99.90;;;;;;4140942;28;20285;-77
2022/08/23 10:48:47;;;;;;;3.37;1.93;;;23.90;99.90;;;;;;4133380;28;20232;-79
2022/08/23 10:53:45;;;;;;;2.97;1.83;;;24.00;99.90;;;;;;4110582;28;20232;-76
2022/08/23 10:56:02;;;;;;;2.60;1.93;;;24.30;99.90;;;;;;4146281;28;20208;-77
2022/08/23 10:58:07;;;;;;;2.43;1.80;;;24.30;99.90;;;;;;4139450;28;20262;-78
2022/08/23 11:00:15;;;;;;;2.50;1.93;;;24.50;99.90;;;;;;4139377;28;20640;-78
2022/08/23 11:02:27;;;;;;;2.37;1.80;;;24.50;99.90;;;;;;4140344;28;20209;-77
2022/08/23 11:04:35;;;;;;;2.47;1.90;;;24.60;99.90;;;;;;4138289;28;20211;-76
2022/08/23 11:06:50;;;;;;;2.50;1.67;;;24.60;99.90;;;;;;4144042;28;20299;-76